South Range, MI (49963)

11:16 AM EST on December 29, 2014 (GMT -0500)
Onnela | Change Station
CLOSE
Current Station
Personal Weather Station
Location: Atlantic Mine, MI
Elevation: 940 ft
Nearby Weather Stations

Elev 940 ft 47.13 °N, 88.69 °W | Updated 59 seconds ago

Overcast
Overcast
8.5 °F
Feels Like 8 °F
N
0.0
Wind Variable Wind from North
Gusts 2.0 mph

Today
High -- | Low -- °F
--% Chance of Precip.
Yesterday
High -- | Low -- °F
Precip. -- in
8:40 AM 5:13 PM
First Quarter, 60% visible
Pressure 30.47 in
Visibility 6.0 miles
Clouds Overcast 2200 ft
Windchill 8 °F
Dew Point 4 °F
Humidity 81%
Rainfall 0.00 in
Snow Depth Not available.
UV 0 out of 12
Pollen .10 out of 12
Air Quality Not available.
Flu Activity Not available.
METAR KCMX 291553Z AUTO 33012KT 6SM -SN OVC022 M14/M18 A3039 RMK AO2 SNE27B53 SLP317 P0000 T11391183

More Conditions Fewer Conditions

Pressure 30.47 in
Visibility 6.0 miles
Clouds Overcast 2200 ft
Windchill 8 °F
Dew Point 4 °F
Humidity 81%
Rainfall 0.00 in
Snow Depth Not available.
UV 0 out of 12
Pollen .10 out of 12
Air Quality Not available.
Flu Activity Not available.
METAR KCMX 291553Z AUTO 33012KT 6SM -SN OVC022 M14/M18 A3039 RMK AO2 SNE27B53 SLP317 P0000 T11391183

More Conditions Fewer Conditions

10-Day Weather Forecast

Almanac

Astronomy

Dec. 29, 2014 Rise Set
Actual Time
Civil Twilight
Nautical Twilight
Astronomical Twilight
Moon
Length of Visible Light
Length of Day
Tomorrow will be .
, % of the Moon is Illuminated

Today's Extremes

State Highs State Lows

Community

WunderPhotos

Upload Photos

1,781,627 photos uploaded!

WunderBlogs® & News

Nearby

Air Quality

  Air Quality AQ Index Pollutant
Not available.

Snow Depth

Station Depth Elevation

Earthquake Activity

City Distance Mag. Time & Date
Minimum magnitude displayed is 2.5.

Coastal Water Temperatures

Place Temperature

Nearby Weather Stations